EDDK METAR and TAF | Updated Today

EDDK METAR

Cologne Bonn Airport

Observation time: 25 min. ago

EDDK 061950Z AUTO VRB01KT CAVOK 09/06 Q1030 NOSIG

Need help? Read our tutorial on how to read METARs or read the parsed version below.

Cologne Bonn Airport (EDDK) METAR

  • Weather conditions on Thu, 06 Oct 2022 19:50:00 +0000 (25 min. ago):
  • Present conditions: Dry
  • Clouds: Clear skies
  • Visibility: Greater than 10 km
  • Wind: Variable at 1 knots
  • Temperature: 9 celsius
  • Dew point: 6 celsius
  • Pressure: 1030 millibars
  • Remarks: None


Useful to know...

EDDK TAF

Cologne Bonn Airport

TAF EDDK 061700Z 0618/0724 12003KT CAVOK BECMG 0710/0712 19007KT
Observation time: 3:15 hr. ago
Need help? Read our tutorial on how to read TAFs or read the parsed version below.

Parsed version of TAF for Cologne Bonn Airport (EDDK)

  • From 06 October at 18:00 UTC, to day 07 of the month at 24:00 UTC
  • Visibility: Greater than 10 km
  • Wind: 120 degrees at 3
  • Expected to arise soon, from 07 October at 10:00 UTC, to day 07 of the month at 12:00 UTC
  • Wind: 190 degrees at 7